Time;durP1;ratioP1;P1;durP2;ratioP2;P2;SDS_P1;SDS_P2;PMS_P1;PMS_P2;Temp;Humidity;BMP_temperature;BMP_pressure;BME280_temperature;BME280_humidity;BME280_pressure;Samples;Min_cycle;Max_cycle;Signal;HPM_P1;HPM_P2
2023/08/20 00:00:18;;;;;;;;;;;;;;;;;;5074321;28;19908;-20
2023/08/20 00:02:44;;;;;;;;;;;;;;;;;;5074451;28;19916;-20
2023/08/20 00:05:10;;;;;;;;;;;;;;;;;;5074098;28;20039;-21
2023/08/20 00:07:36;;;;;;;;;;;;;;;;;;5074176;28;19978;-21
2023/08/20 00:10:03;;;;;;;;;;;;;;;;;;5074364;28;19912;-20
2023/08/20 00:12:29;;;;;;;;;;;;;;;;;;5074249;28;20007;-21
2023/08/20 00:14:55;;;;;;;;;;;;;;;;;;5074296;28;19948;-21
2023/08/20 00:17:21;;;;;;;;;;;;;;;;;;5074458;28;19908;-21
2023/08/20 00:19:46;;;;;;;;;;;;;;;;;;5074253;28;19908;-21
2023/08/20 00:22:12;;;;;;;;;;;;;;;;;;5074060;28;19981;-20
2023/08/20 00:24:38;;;;;;;;;;;;;;;;;;5074116;28;20378;-24
2023/08/20 00:27:04;;;;;;;;;;;;;;;;;;5074196;28;20374;-22
2023/08/20 00:29:30;;;;;;;;;;;;;;;;;;5074029;28;19915;-21
2023/08/20 00:31:56;;;;;;;;;;;;;;;;;;5073928;28;19996;-20
2023/08/20 00:34:22;;;;;;;;;;;;;;;;;;5073900;28;19908;-20
2023/08/20 00:36:48;;;;;;;;;;;;;;;;;;5074704;28;19947;-21
2023/08/20 00:39:15;;;;;;;;;;;;;;;;;;5077840;28;19908;-23
2023/08/20 00:41:41;;;;;;;;;;;;;;;;;;5077943;28;19920;-21
2023/08/20 00:44:07;;;;;;;;;;;;;;;;;;5076709;28;20328;-21
2023/08/20 00:46:33;;;;;;;;;;;;;;;;;;5077716;28;20259;-20
2023/08/20 00:48:59;;;;;;;;;;;;;;;;;;5076773;28;20405;-20
2023/08/20 00:51:25;;;;;;;;;;;;;;;;;;5076620;28;20327;-20
2023/08/20 00:53:51;;;;;;;;;;;;;;;;;;5077581;28;19991;-21
2023/08/20 00:56:17;;;;;;;;;;;;;;;;;;5077844;28;20298;-21
2023/08/20 00:58:43;;;;;;;;;;;;;;;;;;5077400;28;19912;-21
2023/08/20 01:01:09;;;;;;;;;;;;;;;;;;5077662;28;19938;-21
2023/08/20 01:03:35;;;;;;;;;;;;;;;;;;5077325;28;19935;-21
2023/08/20 01:06:00;;;;;;;;;;;;;;;;;;5077630;28;19970;-21
2023/08/20 01:08:27;;;;;;;;;;;;;;;;;;5077223;28;20355;-20
2023/08/20 01:10:53;;;;;;;;;;;;;;;;;;5077543;28;20242;-20
2023/08/20 01:13:19;;;;;;;;;;;;;;;;;;5077158;28;19991;-21
2023/08/20 01:15:45;;;;;;;;;;;;;;;;;;5077207;28;19912;-21
2023/08/20 01:18:11;;;;;;;;;;;;;;;;;;5077132;28;19966;-21
2023/08/20 01:20:37;;;;;;;;;;;;;;;;;;5077121;28;19909;-20
2023/08/20 01:23:03;;;;;;;;;;;;;;;;;;5077026;28;19974;-20
2023/08/20 01:25:28;;;;;;;;;;;;;;;;;;5077101;28;19919;-21
2023/08/20 01:27:54;;;;;;;;;;;;;;;;;;5077014;28;19964;-21
2023/08/20 01:30:20;;;;;;;;;;;;;;;;;;5076951;28;19920;-23
2023/08/20 01:32:46;;;;;;;;;;;;;;;;;;5076814;28;19963;-22
2023/08/20 01:35:15;;;;;;;;;;;;;;;;;;5076797;28;20219;-21
2023/08/20 01:37:41;;;;;;;;;;;;;;;;;;5076791;28;19908;-21
2023/08/20 01:40:08;;;;;;;;;;;;;;;;;;5076722;28;19962;-21
2023/08/20 01:42:34;;;;;;;;;;;;;;;;;;5075492;28;19909;-20
2023/08/20 01:45:00;;;;;;;;;;;;;;;;;;5076802;28;19908;-21
2023/08/20 01:47:26;;;;;;;;;;;;;;;;;;5076425;28;19912;-20
2023/08/20 01:49:51;;;;;;;;;;;;;;;;;;5075399;28;19908;-20
2023/08/20 01:52:17;;;;;;;;;;;;;;;;;;5076409;28;19909;-23
2023/08/20 01:54:43;;;;;;;;;;;;;;;;;;5075337;28;19970;-22
2023/08/20 01:57:09;;;;;;;;;;;;;;;;;;5076458;28;19909;-22
2023/08/20 01:59:35;;;;;;;;;;;;;;;;;;5076444;28;19912;-22
2023/08/20 02:02:01;;;;;;;;;;;;;;;;;;5076265;28;19908;-20
2023/08/20 02:04:27;;;;;;;;;;;;;;;;;;5075009;28;20374;-20
2023/08/20 02:06:53;;;;;;;;;;;;;;;;;;5075173;28;19912;-21
2023/08/20 02:09:20;;;;;;;;;;;;;;;;;;5076459;28;19909;-22
2023/08/20 02:11:46;;;;;;;;;;;;;;;;;;5076058;28;19908;-22
2023/08/20 02:14:12;;;;;;;;;;;;;;;;;;5075944;28;19915;-21
2023/08/20 02:16:38;;;;;;;;;;;;;;;;;;5076016;28;19909;-21
2023/08/20 02:19:06;;;;;;;;;;;;;;;;;;5076164;28;19934;-21
2023/08/20 02:21:32;;;;;;;;;;;;;;;;;;5075898;28;19908;-20
2023/08/20 02:23:58;;;;;;;;;;;;;;;;;;5075828;28;19962;-22
2023/08/20 02:26:24;;;;;;;;;;;;;;;;;;5074669;28;19919;-20
2023/08/20 02:28:50;;;;;;;;;;;;;;;;;;5075808;28;19977;-20
2023/08/20 02:31:16;;;;;;;;;;;;;;;;;;5075718;28;19908;-21
2023/08/20 02:33:42;;;;;;;;;;;;;;;;;;5075656;28;19958;-21
2023/08/20 02:36:08;;;;;;;;;;;;;;;;;;5075612;28;19991;-21
2023/08/20 02:38:34;;;;;;;;;;;;;;;;;;5075863;28;19938;-23
2023/08/20 02:41:00;;;;;;;;;;;;;;;;;;5075582;28;19962;-20
2023/08/20 02:43:26;;;;;;;;;;;;;;;;;;5075724;28;19965;-27
2023/08/20 02:45:52;;;;;;;;;;;;;;;;;;5075493;28;19912;-21
2023/08/20 02:48:17;;;;;;;;;;;;;;;;;;5075353;28;19922;-22
2023/08/20 02:50:43;;;;;;;;;;;;;;;;;;5075350;28;19948;-21
2023/08/20 02:53:09;;;;;;;;;;;;;;;;;;5075264;28;19908;-21
2023/08/20 02:55:35;;;;;;;;;;;;;;;;;;5075294;28;20263;-20
2023/08/20 02:58:03;;;;;;;;;;;;;;;;;;5075216;28;20038;-20
2023/08/20 03:00:29;;;;;;;;;;;;;;;;;;5074920;28;20003;-21
2023/08/20 03:02:56;;;;;;;;;;;;;;;;;;5074918;28;19948;-20
2023/08/20 03:05:22;;;;;;;;;;;;;;;;;;5075331;28;19924;-20
2023/08/20 03:07:47;;;;;;;;;;;;;;;;;;5075034;28;20350;-19
2023/08/20 03:10:13;;;;;;;;;;;;;;;;;;5075020;28;20364;-21
2023/08/20 03:12:39;;;;;;;;;;;;;;;;;;5073931;28;19952;-21
2023/08/20 03:15:05;;;;;;;;;;;;;;;;;;5074978;28;19916;-21
2023/08/20 03:17:31;;;;;;;;;;;;;;;;;;5073922;28;20362;-20
2023/08/20 03:19:57;;;;;;;;;;;;;;;;;;5074850;28;19920;-21
2023/08/20 03:22:23;;;;;;;;;;;;;;;;;;5075145;28;19909;-20
2023/08/20 03:24:49;;;;;;;;;;;;;;;;;;5074810;28;19919;-21
2023/08/20 03:27:15;;;;;;;;;;;;;;;;;;5074646;28;19916;-21
2023/08/20 03:29:41;;;;;;;;;;;;;;;;;;5074764;28;19951;-21
2023/08/20 03:32:07;;;;;;;;;;;;;;;;;;5073873;28;19908;-22
2023/08/20 03:34:33;;;;;;;;;;;;;;;;;;5074732;28;19996;-21
2023/08/20 03:36:59;;;;;;;;;;;;;;;;;;5074601;28;19908;-20
2023/08/20 03:39:25;;;;;;;;;;;;;;;;;;5073563;28;19956;-22
2023/08/20 03:41:51;;;;;;;;;;;;;;;;;;5074507;28;19920;-21
2023/08/20 03:44:17;;;;;;;;;;;;;;;;;;5073547;28;20224;-21
2023/08/20 03:46:43;;;;;;;;;;;;;;;;;;5074735;28;19967;-20
2023/08/20 03:49:08;;;;;;;;;;;;;;;;;;5074681;28;20011;-21
2023/08/20 03:51:35;;;;;;;;;;;;;;;;;;5073364;28;20271;-21
2023/08/20 03:54:00;;;;;;;;;;;;;;;;;;5074357;28;19909;-22
2023/08/20 03:56:26;;;;;;;;;;;;;;;;;;5074709;28;19919;-32
2023/08/20 03:58:52;;;;;;;;;;;;;;;;;;5074409;28;19918;-21
2023/08/20 04:01:18;;;;;;;;;;;;;;;;;;5074416;28;19916;-20
2023/08/20 04:03:44;;;;;;;;;;;;;;;;;;5074320;28;19928;-20
2023/08/20 04:06:10;;;;;;;;;;;;;;;;;;5074587;28;19909;-20
2023/08/20 04:08:36;;;;;;;;;;;;;;;;;;5074209;28;19912;-22
2023/08/20 04:11:03;;;;;;;;;;;;;;;;;;5074456;28;19908;-21
2023/08/20 04:13:29;;;;;;;;;;;;;;;;;;5077763;28;19943;-21
2023/08/20 04:15:55;;;;;;;;;;;;;;;;;;5078336;28;20312;-21
2023/08/20 04:18:21;;;;;;;;;;;;;;;;;;5078375;28;20335;-21
2023/08/20 04:20:47;;;;;;;;;;;;;;;;;;5078554;28;20007;-21
2023/08/20 04:23:13;;;;;;;;;;;;;;;;;;5078199;28;19936;-20
2023/08/20 04:25:40;;;;;;;;;;;;;;;;;;5078200;28;19979;-21
2023/08/20 04:28:06;;;;;;;;;;;;;;;;;;5077970;28;19912;-21
2023/08/20 04:30:32;;;;;;;;;;;;;;;;;;5078091;28;19908;-21
2023/08/20 04:32:58;;;;;;;;;;;;;;;;;;5077977;28;20050;-21
2023/08/20 04:35:24;;;;;;;;;;;;;;;;;;5078002;28;19919;-20
2023/08/20 04:37:50;;;;;;;;;;;;;;;;;;5076958;28;19999;-20
2023/08/20 04:40:16;;;;;;;;;;;;;;;;;;5077892;28;20347;-20
2023/08/20 04:42:41;;;;;;;;;;;;;;;;;;5078017;28;19916;-20
2023/08/20 04:45:07;;;;;;;;;;;;;;;;;;5077837;28;20305;-21
2023/08/20 04:47:33;;;;;;;;;;;;;;;;;;5077980;28;20377;-21
2023/08/20 04:49:59;;;;;;;;;;;;;;;;;;5077732;28;20307;-23
2023/08/20 04:52:25;;;;;;;;;;;;;;;;;;5077829;28;20354;-20
2023/08/20 04:54:51;;;;;;;;;;;;;;;;;;5076612;28;20339;-20
2023/08/20 04:57:17;;;;;;;;;;;;;;;;;;5077623;28;19955;-20
2023/08/20 04:59:45;;;;;;;;;;;;;;;;;;5076442;28;19913;-22
2023/08/20 05:02:11;;;;;;;;;;;;;;;;;;5077671;28;20023;-21
2023/08/20 05:04:37;;;;;;;;;;;;;;;;;;5077224;28;19921;-21
2023/08/20 05:07:03;;;;;;;;;;;;;;;;;;5077259;28;19978;-22
2023/08/20 05:09:29;;;;;;;;;;;;;;;;;;5077346;28;19919;-21
2023/08/20 05:11:55;;;;;;;;;;;;;;;;;;5077296;28;19912;-20
2023/08/20 05:14:21;;;;;;;;;;;;;;;;;;5077322;28;19909;-20
2023/08/20 05:16:47;;;;;;;;;;;;;;;;;;5077240;28;19970;-20
2023/08/20 05:19:13;;;;;;;;;;;;;;;;;;5077213;28;19908;-21
2023/08/20 05:21:39;;;;;;;;;;;;;;;;;;5077399;28;19930;-21
2023/08/20 05:24:04;;;;;;;;;;;;;;;;;;5076825;28;20339;-20
2023/08/20 05:26:30;;;;;;;;;;;;;;;;;;5076963;28;20302;-21
2023/08/20 05:28:56;;;;;;;;;;;;;;;;;;5077245;28;19908;-20
2023/08/20 05:31:22;;;;;;;;;;;;;;;;;;5077159;28;19915;-21
2023/08/20 05:33:48;;;;;;;;;;;;;;;;;;5077033;28;19915;-21
2023/08/20 05:36:14;;;;;;;;;;;;;;;;;;5076947;28;19916;-23
2023/08/20 05:38:42;;;;;;;;;;;;;;;;;;5076836;28;20018;-21
2023/08/20 05:41:08;;;;;;;;;;;;;;;;;;5076729;28;20004;-21
2023/08/20 05:43:36;;;;;;;;;;;;;;;;;;5076660;28;19909;-20
2023/08/20 05:46:02;;;;;;;;;;;;;;;;;;5076669;28;19925;-22
2023/08/20 05:48:28;;;;;;;;;;;;;;;;;;5076748;28;19917;-21
2023/08/20 05:50:54;;;;;;;;;;;;;;;;;;5076596;28;19962;-20
2023/08/20 05:53:20;;;;;;;;;;;;;;;;;;5076958;28;19909;-20
2023/08/20 05:55:46;;;;;;;;;;;;;;;;;;5076532;28;19908;-21
2023/08/20 05:58:11;;;;;;;;;;;;;;;;;;5076485;28;19912;-20
2023/08/20 06:00:38;;;;;;;;;;;;;;;;;;5077095;28;19970;-22
2023/08/20 06:03:03;;;;;;;;;;;;;;;;;;5076113;28;19917;-20
2023/08/20 06:05:29;;;;;;;;;;;;;;;;;;5076581;28;20331;-20
2023/08/20 06:07:55;;;;;;;;;;;;;;;;;;5076271;28;20228;-22
2023/08/20 06:10:21;;;;;;;;;;;;;;;;;;5076436;28;19913;-20
2023/08/20 06:12:47;;;;;;;;;;;;;;;;;;5076106;28;19915;-21
2023/08/20 06:15:13;;;;;;;;;;;;;;;;;;5076353;28;20001;-21
2023/08/20 06:17:39;;;;;;;;;;;;;;;;;;5075991;28;20263;-20
2023/08/20 06:20:07;;;;;;;;;;;;;;;;;;5075979;28;20074;-21
2023/08/20 06:22:33;;;;;;;;;;;;;;;;;;5076095;28;19940;-21
2023/08/20 06:24:59;;;;;;;;;;;;;;;;;;5075921;28;19974;-21
2023/08/20 06:27:25;;;;;;;;;;;;;;;;;;5074767;28;19956;-22
2023/08/20 06:29:51;;;;;;;;;;;;;;;;;;5074872;28;19908;-21
2023/08/20 06:32:17;;;;;;;;;;;;;;;;;;5075990;28;19908;-20
2023/08/20 06:34:43;;;;;;;;;;;;;;;;;;5075372;28;20251;-20
2023/08/20 06:37:09;;;;;;;;;;;;;;;;;;5074715;28;19920;-21
2023/08/20 06:39:35;;;;;;;;;;;;;;;;;;5075881;28;19991;-23
2023/08/20 06:42:02;;;;;;;;;;;;;;;;;;5074505;28;19935;-21
2023/08/20 06:44:28;;;;;;;;;;;;;;;;;;5075782;28;19908;-21
2023/08/20 06:46:54;;;;;;;;;;;;;;;;;;5075618;28;19939;-20
2023/08/20 06:49:20;;;;;;;;;;;;;;;;;;5075716;28;19943;-20
2023/08/20 06:51:45;;;;;;;;;;;;;;;;;;5075450;28;19909;-22
2023/08/20 06:54:11;;;;;;;;;;;;;;;;;;5075326;28;20347;-22
2023/08/20 06:56:37;;;;;;;;;;;;;;;;;;5075318;28;19908;-21
2023/08/20 06:59:03;;;;;;;;;;;;;;;;;;5075445;28;19908;-20
2023/08/20 07:01:29;;;;;;;;;;;;;;;;;;5075487;28;20003;-21
2023/08/20 07:03:55;;;;;;;;;;;;;;;;;;5074872;28;19921;-22
2023/08/20 07:06:21;;;;;;;;;;;;;;;;;;5075053;28;20430;-21
2023/08/20 07:08:47;;;;;;;;;;;;;;;;;;5075347;28;19909;-20
2023/08/20 07:11:13;;;;;;;;;;;;;;;;;;5075103;28;20328;-20
2023/08/20 07:13:39;;;;;;;;;;;;;;;;;;5074966;28;20415;-22
2023/08/20 07:16:05;;;;;;;;;;;;;;;;;;5073957;28;19912;-22
2023/08/20 07:18:31;;;;;;;;;;;;;;;;;;5074920;28;19948;-22
2023/08/20 07:20:57;;;;;;;;;;;;;;;;;;5075359;28;19908;-21
2023/08/20 07:23:23;;;;;;;;;;;;;;;;;;5074808;28;19908;-20
2023/08/20 07:25:51;;;;;;;;;;;;;;;;;;5073770;28;19916;-20
2023/08/20 07:28:26;;;;;;;;;;;;;;;;;;5073748;28;20270;-19
2023/08/20 07:30:52;;;;;;;;;;;;;;;;;;5075017;28;20000;-21
2023/08/20 07:33:18;;;;;;;;;;;;;;;;;;5073665;28;19908;-23
2023/08/20 07:35:44;;;;;;;;;;;;;;;;;;5074657;28;19916;-21
2023/08/20 07:38:10;;;;;;;;;;;;;;;;;;5075187;28;20395;-21
2023/08/20 07:40:36;;;;;;;;;;;;;;;;;;5074921;28;19912;-22
2023/08/20 07:43:02;;;;;;;;;;;;;;;;;;5073524;28;20007;-21
2023/08/20 07:45:28;;;;;;;;;;;;;;;;;;5074569;28;19916;-20
2023/08/20 07:47:54;;;;;;;;;;;;;;;;;;5073927;28;19917;-20
2023/08/20 07:50:20;;;;;;;;;;;;;;;;;;5074514;28;19974;-20
2023/08/20 07:52:46;;;;;;;;;;;;;;;;;;5074467;28;19908;-22
2023/08/20 07:55:11;;;;;;;;;;;;;;;;;;5073467;28;19946;-21
2023/08/20 07:57:37;;;;;;;;;;;;;;;;;;5074606;28;19916;-21
2023/08/20 08:00:04;;;;;;;;;;;;;;;;;;5074452;28;19916;-20
2023/08/20 08:02:30;;;;;;;;;;;;;;;;;;5074363;28;19952;-20
2023/08/20 08:04:56;;;;;;;;;;;;;;;;;;5074293;28;19920;-21
2023/08/20 08:07:22;;;;;;;;;;;;;;;;;;5074448;28;20290;-21
2023/08/20 08:09:48;;;;;;;;;;;;;;;;;;5074325;28;19916;-23
2023/08/20 08:12:14;;;;;;;;;;;;;;;;;;5073229;28;19923;-20
2023/08/20 08:14:40;;;;;;;;;;;;;;;;;;5074447;28;19915;-20
2023/08/20 08:17:07;;;;;;;;;;;;;;;;;;5074241;28;20294;-20
2023/08/20 08:19:33;;;;;;;;;;;;;;;;;;5074456;28;19909;-21
2023/08/20 08:21:59;;;;;;;;;;;;;;;;;;5074094;28;20300;-21
2023/08/20 08:24:25;;;;;;;;;;;;;;;;;;5074182;28;19912;-21
2023/08/20 08:26:51;;;;;;;;;;;;;;;;;;5074405;28;19917;-22
2023/08/20 08:29:17;;;;;;;;;;;;;;;;;;5074198;28;19908;-20
2023/08/20 08:31:43;;;;;;;;;;;;;;;;;;5074122;28;20235;-20
2023/08/20 08:34:09;;;;;;;;;;;;;;;;;;5074034;28;19908;-21
2023/08/20 08:36:34;;;;;;;;;;;;;;;;;;5074342;28;20358;-22
2023/08/20 08:39:00;;;;;;;;;;;;;;;;;;5074100;28;19923;-20
2023/08/20 08:41:26;;;;;;;;;;;;;;;;;;5074482;28;20339;-21
2023/08/20 08:43:52;;;;;;;;;;;;;;;;;;5072944;28;19999;-21
2023/08/20 08:46:19;;;;;;;;;;;;;;;;;;5074229;28;20365;-21
2023/08/20 08:48:45;;;;;;;;;;;;;;;;;;5072824;28;19916;-21
2023/08/20 08:51:11;;;;;;;;;;;;;;;;;;5073958;28;19909;-21
2023/08/20 08:53:37;;;;;;;;;;;;;;;;;;5073915;28;19970;-20
2023/08/20 08:56:05;;;;;;;;;;;;;;;;;;5074136;28;19955;-21
2023/08/20 08:58:31;;;;;;;;;;;;;;;;;;5075833;28;19909;-21
2023/08/20 09:00:57;;;;;;;;;;;;;;;;;;5076529;28;19908;-21
2023/08/20 09:03:24;;;;;;;;;;;;;;;;;;5077309;28;20320;-22
2023/08/20 09:05:50;;;;;;;;;;;;;;;;;;5077492;28;19908;-21
2023/08/20 09:08:16;;;;;;;;;;;;;;;;;;5077600;28;19919;-21
2023/08/20 09:10:42;;;;;;;;;;;;;;;;;;5077378;28;20295;-21
2023/08/20 09:13:08;;;;;;;;;;;;;;;;;;5077958;28;19912;-21
2023/08/20 09:15:35;;;;;;;;;;;;;;;;;;5077259;28;20000;-20
2023/08/20 09:18:02;;;;;;;;;;;;;;;;;;5077171;28;19958;-20
2023/08/20 09:20:27;;;;;;;;;;;;;;;;;;5077397;28;19917;-20
2023/08/20 09:22:54;;;;;;;;;;;;;;;;;;5077084;28;19963;-22
2023/08/20 09:25:20;;;;;;;;;;;;;;;;;;5077139;28;20336;-23
2023/08/20 09:27:46;;;;;;;;;;;;;;;;;;5075939;28;20355;-22
2023/08/20 09:30:12;;;;;;;;;;;;;;;;;;5077036;28;19995;-21
2023/08/20 09:32:38;;;;;;;;;;;;;;;;;;5077049;28;19909;-21
2023/08/20 09:35:04;;;;;;;;;;;;;;;;;;5075873;28;19966;-21
2023/08/20 09:37:29;;;;;;;;;;;;;;;;;;5076839;28;20031;-21
2023/08/20 09:39:55;;;;;;;;;;;;;;;;;;5077082;28;20011;-20
2023/08/20 09:42:21;;;;;;;;;;;;;;;;;;5075754;28;19935;-20
2023/08/20 09:44:48;;;;;;;;;;;;;;;;;;5077031;28;20363;-21
2023/08/20 09:47:14;;;;;;;;;;;;;;;;;;5076665;28;20301;-21
2023/08/20 09:49:40;;;;;;;;;;;;;;;;;;5076679;28;20000;-21
2023/08/20 09:52:09;;;;;;;;;;;;;;;;;;5076683;28;19975;-20
2023/08/20 09:54:35;;;;;;;;;;;;;;;;;;5076750;28;19913;-21
2023/08/20 09:57:02;;;;;;;;;;;;;;;;;;5076483;28;19915;-22
2023/08/20 09:59:28;;;;;;;;;;;;;;;;;;5076323;28;20339;-21
2023/08/20 10:01:54;;;;;;;;;;;;;;;;;;5076597;28;19908;-21
2023/08/20 10:04:20;;;;;;;;;;;;;;;;;;5076214;28;19920;-21
2023/08/20 10:06:46;;;;;;;;;;;;;;;;;;5075198;28;19923;-20
2023/08/20 10:09:13;;;;;;;;;;;;;;;;;;5075543;28;19919;-21
2023/08/20 10:11:38;;;;;;;;;;;;;;;;;;5075979;28;20311;-23
2023/08/20 10:14:04;;;;;;;;;;;;;;;;;;5075126;28;19920;-21
2023/08/20 10:16:30;;;;;;;;;;;;;;;;;;5076393;28;19908;-21
2023/08/20 10:18:59;;;;;;;;;;;;;;;;;;5076128;28;19916;-20
2023/08/20 10:21:25;;;;;;;;;;;;;;;;;;5076108;28;20246;-21
2023/08/20 10:23:51;;;;;;;;;;;;;;;;;;5076215;28;19920;-21
2023/08/20 10:26:18;;;;;;;;;;;;;;;;;;5076233;28;19913;-20
2023/08/20 10:28:44;;;;;;;;;;;;;;;;;;5075869;28;19912;-20
2023/08/20 10:31:11;;;;;;;;;;;;;;;;;;5076120;28;19908;-21
2023/08/20 10:33:37;;;;;;;;;;;;;;;;;;5075700;28;19912;-21
2023/08/20 10:36:03;;;;;;;;;;;;;;;;;;5075940;28;19915;-21
2023/08/20 10:38:29;;;;;;;;;;;;;;;;;;5075690;28;20257;-23
2023/08/20 10:40:58;;;;;;;;;;;;;;;;;;5075644;28;19935;-21
2023/08/20 10:43:24;;;;;;;;;;;;;;;;;;5075523;28;19947;-22
2023/08/20 10:45:52;;;;;;;;;;;;;;;;;;5075798;28;20251;-21
2023/08/20 10:48:17;;;;;;;;;;;;;;;;;;5075325;28;19913;-22
2023/08/20 10:50:43;;;;;;;;;;;;;;;;;;5075687;28;19977;-20
2023/08/20 10:53:09;;;;;;;;;;;;;;;;;;5075307;28;19959;-21
2023/08/20 10:55:35;;;;;;;;;;;;;;;;;;5075364;28;19913;-20
2023/08/20 10:58:02;;;;;;;;;;;;;;;;;;5075557;28;19936;-21
2023/08/20 11:00:29;;;;;;;;;;;;;;;;;;5074335;28;19952;-21
2023/08/20 11:02:55;;;;;;;;;;;;;;;;;;5075055;28;19912;-21
2023/08/20 11:05:21;;;;;;;;;;;;;;;;;;5075227;28;19938;-20
2023/08/20 11:07:47;;;;;;;;;;;;;;;;;;5075099;28;19912;-21
2023/08/20 11:10:13;;;;;;;;;;;;;;;;;;5074996;28;19912;-21
2023/08/20 11:12:39;;;;;;;;;;;;;;;;;;5074918;28;20009;-20
2023/08/20 11:15:05;;;;;;;;;;;;;;;;;;5074908;28;19970;-20
2023/08/20 11:17:31;;;;;;;;;;;;;;;;;;5075175;28;19908;-22
2023/08/20 11:19:57;;;;;;;;;;;;;;;;;;5075144;28;19981;-21
2023/08/20 11:22:23;;;;;;;;;;;;;;;;;;5073534;28;19951;-22
2023/08/20 11:24:49;;;;;;;;;;;;;;;;;;5074808;28;19943;-20
2023/08/20 11:27:15;;;;;;;;;;;;;;;;;;5075373;28;20019;-20
2023/08/20 11:29:42;;;;;;;;;;;;;;;;;;5074783;28;19919;-22
2023/08/20 11:32:09;;;;;;;;;;;;;;;;;;5074647;28;19908;-21
2023/08/20 11:34:35;;;;;;;;;;;;;;;;;;5074637;28;19912;-21
2023/08/20 11:37:02;;;;;;;;;;;;;;;;;;5074613;28;19919;-21
2023/08/20 11:39:28;;;;;;;;;;;;;;;;;;5074674;28;19974;-21
2023/08/20 11:41:54;;;;;;;;;;;;;;;;;;5074576;28;20007;-21
2023/08/20 11:44:21;;;;;;;;;;;;;;;;;;5073612;28;20335;-22
2023/08/20 11:46:47;;;;;;;;;;;;;;;;;;5074747;28;19909;-21
2023/08/20 11:49:13;;;;;;;;;;;;;;;;;;5074549;28;19927;-22
2023/08/20 11:51:39;;;;;;;;;;;;;;;;;;5074719;28;19908;-21
2023/08/20 11:54:05;;;;;;;;;;;;;;;;;;5074655;28;20243;-22
2023/08/20 11:56:31;;;;;;;;;;;;;;;;;;5074679;28;19908;-22
2023/08/20 11:58:57;;;;;;;;;;;;;;;;;;5074366;28;19997;-22
2023/08/20 12:01:23;;;;;;;;;;;;;;;;;;5073403;28;19908;-20
2023/08/20 12:03:49;;;;;;;;;;;;;;;;;;5072998;28;20344;-22
2023/08/20 12:06:15;;;;;;;;;;;;;;;;;;5074607;28;19922;-22
2023/08/20 12:08:41;;;;;;;;;;;;;;;;;;5074483;28;20280;-21
2023/08/20 12:11:07;;;;;;;;;;;;;;;;;;5074331;28;20009;-20
2023/08/20 12:13:35;;;;;;;;;;;;;;;;;;5073808;28;20261;-21
2023/08/20 12:16:01;;;;;;;;;;;;;;;;;;5074330;28;19909;-20
2023/08/20 12:18:26;;;;;;;;;;;;;;;;;;5073296;28;19904;-21
2023/08/20 12:20:52;;;;;;;;;;;;;;;;;;5074333;28;19935;-20
2023/08/20 12:23:18;;;;;;;;;;;;;;;;;;5074153;28;20003;-21
2023/08/20 12:25:44;;;;;;;;;;;;;;;;;;5074193;28;19916;-22
2023/08/20 12:28:10;;;;;;;;;;;;;;;;;;5074260;28;19959;-20
2023/08/20 12:30:38;;;;;;;;;;;;;;;;;;5074119;28;19936;-20
2023/08/20 12:33:04;;;;;;;;;;;;;;;;;;5074142;28;19908;-21
2023/08/20 12:35:30;;;;;;;;;;;;;;;;;;5078118;28;20240;-20
2023/08/20 12:37:55;;;;;;;;;;;;;;;;;;5078068;28;20007;-23
2023/08/20 12:40:21;;;;;;;;;;;;;;;;;;5078178;28;19908;-23
2023/08/20 12:42:47;;;;;;;;;;;;;;;;;;5078081;28;20291;-21
2023/08/20 12:45:13;;;;;;;;;;;;;;;;;;5076873;28;19915;-20
2023/08/20 12:47:40;;;;;;;;;;;;;;;;;;5077677;28;19916;-20
2023/08/20 12:50:06;;;;;;;;;;;;;;;;;;5077720;28;19938;-21
2023/08/20 12:52:32;;;;;;;;;;;;;;;;;;5077630;28;19908;-21
2023/08/20 12:54:58;;;;;;;;;;;;;;;;;;5077665;28;19966;-21
2023/08/20 12:57:24;;;;;;;;;;;;;;;;;;5076669;28;19909;-21
2023/08/20 12:59:50;;;;;;;;;;;;;;;;;;5077608;28;19938;-21
2023/08/20 13:02:16;;;;;;;;;;;;;;;;;;5077428;28;19954;-20
2023/08/20 13:04:41;;;;;;;;;;;;;;;;;;5077369;28;20336;-21
2023/08/20 13:07:07;;;;;;;;;;;;;;;;;;5077365;28;19921;-21
2023/08/20 13:09:33;;;;;;;;;;;;;;;;;;5077426;28;20293;-22
2023/08/20 13:11:59;;;;;;;;;;;;;;;;;;5077530;28;19915;-20
2023/08/20 13:14:26;;;;;;;;;;;;;;;;;;5077335;28;19913;-20
2023/08/20 13:16:52;;;;;;;;;;;;;;;;;;5076231;28;20339;-21
2023/08/20 13:19:17;;;;;;;;;;;;;;;;;;5077214;28;19944;-20
2023/08/20 13:21:43;;;;;;;;;;;;;;;;;;5077150;28;19937;-21
2023/08/20 13:24:09;;;;;;;;;;;;;;;;;;5077060;28;19908;-20
2023/08/20 13:26:35;;;;;;;;;;;;;;;;;;5077021;28;20351;-20
2023/08/20 13:29:02;;;;;;;;;;;;;;;;;;5077565;28;19963;-21
2023/08/20 13:31:27;;;;;;;;;;;;;;;;;;5077046;28;19912;-22
2023/08/20 13:33:53;;;;;;;;;;;;;;;;;;5077068;28;20373;-22
2023/08/20 13:36:19;;;;;;;;;;;;;;;;;;5075992;28;19970;-20
2023/08/20 13:38:46;;;;;;;;;;;;;;;;;;5076924;28;19919;-20
2023/08/20 13:41:11;;;;;;;;;;;;;;;;;;5076902;28;19908;-22
2023/08/20 13:43:37;;;;;;;;;;;;;;;;;;5076904;28;20399;-21
2023/08/20 13:46:03;;;;;;;;;;;;;;;;;;5076745;28;19959;-22
2023/08/20 13:48:29;;;;;;;;;;;;;;;;;;5076859;28;19919;-22
2023/08/20 13:50:55;;;;;;;;;;;;;;;;;;5076925;28;19924;-21
2023/08/20 13:53:21;;;;;;;;;;;;;;;;;;5076535;28;20251;-22
2023/08/20 13:55:47;;;;;;;;;;;;;;;;;;5076825;28;19919;-21
2023/08/20 13:58:13;;;;;;;;;;;;;;;;;;5076739;28;19915;-21
2023/08/20 14:00:39;;;;;;;;;;;;;;;;;;5076536;28;20375;-21
2023/08/20 14:03:05;;;;;;;;;;;;;;;;;;5076278;28;19984;-21
2023/08/20 14:05:32;;;;;;;;;;;;;;;;;;5076677;28;19919;-20
2023/08/20 14:07:58;;;;;;;;;;;;;;;;;;5076266;28;20032;-22
2023/08/20 14:10:23;;;;;;;;;;;;;;;;;;5075342;28;19915;-21
2023/08/20 14:12:49;;;;;;;;;;;;;;;;;;5076497;28;19927;-20
2023/08/20 14:15:15;;;;;;;;;;;;;;;;;;5076183;28;20011;-21
2023/08/20 14:17:41;;;;;;;;;;;;;;;;;;5076498;28;19908;-20
2023/08/20 14:20:08;;;;;;;;;;;;;;;;;;5076421;28;19909;-20
2023/08/20 14:22:34;;;;;;;;;;;;;;;;;;5075972;28;19916;-21
2023/08/20 14:25:00;;;;;;;;;;;;;;;;;;5076036;28;19915;-21
2023/08/20 14:27:25;;;;;;;;;;;;;;;;;;5076346;28;20034;-21
2023/08/20 14:29:51;;;;;;;;;;;;;;;;;;5075888;28;19915;-21
2023/08/20 14:32:17;;;;;;;;;;;;;;;;;;5075785;28;20307;-21
2023/08/20 14:34:43;;;;;;;;;;;;;;;;;;5075785;28;19920;-22
2023/08/20 14:37:13;;;;;;;;;;;;;;;;;;5075719;28;20247;-21
2023/08/20 14:39:38;;;;;;;;;;;;;;;;;;5075633;28;19912;-22
2023/08/20 14:42:04;;;;;;;;;;;;;;;;;;5074542;28;19959;-22
2023/08/20 14:44:30;;;;;;;;;;;;;;;;;;5075605;28;19982;-21
2023/08/20 14:46:56;;;;;;;;;;;;;;;;;;5075525;28;19966;-21
2023/08/20 14:49:22;;;;;;;;;;;;;;;;;;5076046;28;19924;-21
2023/08/20 14:51:48;;;;;;;;;;;;;;;;;;5075735;28;19921;-22
2023/08/20 14:54:14;;;;;;;;;;;;;;;;;;5075365;28;19909;-21
2023/08/20 14:56:40;;;;;;;;;;;;;;;;;;5075147;28;20221;-20
2023/08/20 14:59:06;;;;;;;;;;;;;;;;;;5075292;28;19908;-21
2023/08/20 15:01:32;;;;;;;;;;;;;;;;;;5075431;28;19974;-20
2023/08/20 15:03:58;;;;;;;;;;;;;;;;;;5074976;28;19921;-22
2023/08/20 15:06:26;;;;;;;;;;;;;;;;;;5075333;28;19959;-20
2023/08/20 15:08:53;;;;;;;;;;;;;;;;;;5075056;28;19912;-22
2023/08/20 15:11:19;;;;;;;;;;;;;;;;;;5075127;28;19951;-21
2023/08/20 15:13:45;;;;;;;;;;;;;;;;;;5073943;28;19912;-21
2023/08/20 15:16:10;;;;;;;;;;;;;;;;;;5075171;28;20382;-22
2023/08/20 15:18:36;;;;;;;;;;;;;;;;;;5074911;28;19927;-21
2023/08/20 15:21:02;;;;;;;;;;;;;;;;;;5074849;28;19912;-22
2023/08/20 15:23:29;;;;;;;;;;;;;;;;;;5075037;28;19919;-22
2023/08/20 15:25:55;;;;;;;;;;;;;;;;;;5073861;28;19920;-22
2023/08/20 15:28:21;;;;;;;;;;;;;;;;;;5074975;28;19986;-22
2023/08/20 15:30:47;;;;;;;;;;;;;;;;;;5073732;28;19955;-21
2023/08/20 15:33:13;;;;;;;;;;;;;;;;;;5074911;28;19986;-20
2023/08/20 15:35:40;;;;;;;;;;;;;;;;;;5074645;28;19967;-20
2023/08/20 15:38:06;;;;;;;;;;;;;;;;;;5074624;28;19912;-21
2023/08/20 15:40:32;;;;;;;;;;;;;;;;;;5074844;28;19908;-22
2023/08/20 15:42:57;;;;;;;;;;;;;;;;;;5074450;28;20010;-21
2023/08/20 15:45:24;;;;;;;;;;;;;;;;;;5073516;28;19947;-22
2023/08/20 15:47:50;;;;;;;;;;;;;;;;;;5074693;28;19913;-20
2023/08/20 15:50:16;;;;;;;;;;;;;;;;;;5074737;28;20254;-20
2023/08/20 15:52:42;;;;;;;;;;;;;;;;;;5074427;28;20259;-22
2023/08/20 15:55:10;;;;;;;;;;;;;;;;;;5074467;28;19915;-21
2023/08/20 15:57:36;;;;;;;;;;;;;;;;;;5074413;28;19966;-20
2023/08/20 16:00:02;;;;;;;;;;;;;;;;;;5074452;28;20251;-20
2023/08/20 16:02:28;;;;;;;;;;;;;;;;;;5074357;28;19909;-22
2023/08/20 16:04:54;;;;;;;;;;;;;;;;;;5074310;28;19950;-22
2023/08/20 16:07:20;;;;;;;;;;;;;;;;;;5072963;28;19995;-21
2023/08/20 16:09:46;;;;;;;;;;;;;;;;;;5074377;28;19962;-21
2023/08/20 16:12:12;;;;;;;;;;;;;;;;;;5074298;28;19909;-21
2023/08/20 16:14:38;;;;;;;;;;;;;;;;;;5074235;28;20232;-22
2023/08/20 16:17:04;;;;;;;;;;;;;;;;;;5074307;28;19908;-21
2023/08/20 16:19:30;;;;;;;;;;;;;;;;;;5074263;28;20007;-21
2023/08/20 16:21:56;;;;;;;;;;;;;;;;;;5074179;28;19919;-20
2023/08/20 16:24:22;;;;;;;;;;;;;;;;;;5074238;28;20068;-22
2023/08/20 16:26:48;;;;;;;;;;;;;;;;;;5074151;28;19920;-22
2023/08/20 16:29:14;;;;;;;;;;;;;;;;;;5074198;28;20240;-21
2023/08/20 16:31:40;;;;;;;;;;;;;;;;;;5074109;28;19909;-22
2023/08/20 16:34:06;;;;;;;;;;;;;;;;;;5074263;28;19999;-21
2023/08/20 16:36:32;;;;;;;;;;;;;;;;;;5073079;28;19987;-21